createdAt,value
2022-11-01T00:04:06.019Z,100.00
2022-11-01T00:09:09.377Z,100.00
2022-11-01T00:14:13.770Z,100.00
2022-11-01T00:19:18.594Z,100.00
2022-11-01T00:24:22.029Z,100.00
2022-11-01T00:29:25.370Z,100.00
2022-11-01T00:34:30.139Z,100.00
2022-11-01T00:39:33.506Z,100.00
2022-11-01T00:44:36.886Z,100.00
2022-11-01T00:49:41.597Z,100.00
2022-11-01T00:54:44.993Z,100.00
2022-11-01T00:59:48.374Z,100.00
2022-11-01T01:04:53.236Z,100.00
2022-11-01T01:09:56.603Z,100.00
2022-11-01T01:14:59.960Z,100.00
2022-11-01T01:20:04.953Z,100.00
2022-11-01T01:25:08.666Z,100.00
2022-11-01T01:30:12.708Z,100.00
2022-11-01T01:35:17.489Z,100.00
2022-11-01T01:40:20.979Z,100.00
2022-11-01T01:45:29.532Z,100.00
2022-11-01T01:50:36.476Z,100.00
2022-11-01T01:55:43.428Z,100.00
2022-11-01T02:00:46.990Z,100.00
2022-11-01T02:05:53.192Z,100.00
2022-11-01T02:10:57.993Z,100.00
2022-11-01T02:16:22.395Z,100.00
2022-11-01T02:21:43.650Z,100.00
2022-11-01T02:27:02.512Z,100.00
2022-11-01T02:32:15.375Z,100.00
2022-11-01T02:37:24.113Z,100.00
2022-11-01T02:42:30.065Z,100.00
2022-11-01T02:47:35.117Z,100.00
2022-11-01T02:52:39.309Z,100.00
2022-11-01T02:57:42.962Z,100.00
2022-11-01T03:02:48.536Z,100.00
2022-11-01T03:07:53.901Z,100.00
2022-11-01T03:13:05.966Z,100.00
2022-11-01T03:18:14.045Z,100.00
2022-11-01T03:23:20.383Z,100.00
2022-11-01T03:28:25.561Z,100.00
2022-11-01T03:33:32.087Z,100.00
2022-11-01T03:38:37.482Z,100.00
2022-11-01T03:43:41.527Z,100.00
2022-11-01T03:48:46.299Z,100.00
2022-11-01T03:53:49.784Z,100.00
2022-11-01T03:58:53.217Z,100.00
2022-11-01T04:03:57.942Z,100.00
2022-11-01T04:09:01.344Z,100.00
2022-11-01T04:14:22.113Z,100.00
2022-11-01T04:19:43.638Z,100.00
2022-11-01T04:24:46.976Z,100.00
2022-11-01T04:29:50.331Z,100.00
2022-11-01T04:34:55.070Z,100.00
2022-11-01T04:39:58.461Z,100.00
2022-11-01T04:45:01.800Z,100.00
2022-11-01T04:50:07.213Z,100.00
2022-11-01T04:55:10.814Z,100.00
2022-11-01T05:00:14.853Z,100.00
2022-11-01T05:05:19.995Z,100.00
2022-11-01T05:10:23.397Z,100.00
2022-11-01T05:15:26.859Z,100.00
2022-11-01T05:20:31.978Z,100.00
2022-11-01T05:25:38.063Z,100.00
2022-11-01T05:30:42.263Z,100.00
2022-11-01T05:35:46.948Z,100.00
2022-11-01T05:40:50.526Z,100.00
2022-11-01T05:45:53.908Z,100.00
2022-11-01T05:50:58.642Z,100.00
2022-11-01T05:56:02.129Z,100.00
2022-11-01T06:01:06.419Z,100.00
2022-11-01T06:06:11.833Z,100.00
2022-11-01T06:11:16.001Z,100.00
2022-11-01T06:16:19.431Z,100.00
2022-11-01T06:21:27.615Z,100.00
2022-11-01T06:26:33.436Z,100.00
2022-11-01T06:31:36.880Z,100.00
2022-11-01T06:36:42.845Z,100.00
2022-11-01T06:41:46.186Z,100.00
2022-11-01T06:46:49.571Z,100.00
2022-11-01T06:51:54.419Z,100.00
2022-11-01T06:56:58.109Z,100.00
2022-11-01T07:02:01.829Z,100.00
2022-11-01T07:07:06.843Z,100.00
2022-11-01T07:12:10.242Z,100.00
2022-11-01T07:17:13.806Z,100.00
2022-11-01T07:22:18.512Z,100.00
2022-11-01T07:27:22.011Z,100.00
2022-11-01T07:32:25.475Z,100.00
2022-11-01T07:37:31.295Z,100.00
2022-11-01T07:42:34.787Z,100.00
2022-11-01T07:47:38.210Z,100.00
2022-11-01T07:52:42.944Z,100.00
2022-11-01T07:57:46.808Z,100.00
2022-11-01T08:02:50.589Z,100.00
2022-11-01T08:07:55.332Z,100.00
2022-11-01T08:13:02.794Z,100.00
2022-11-01T08:18:06.686Z,100.00
2022-11-01T08:23:11.625Z,100.00
2022-11-01T08:28:15.918Z,100.00
2022-11-01T08:33:19.332Z,100.00
2022-11-01T08:38:24.158Z,100.00
2022-11-01T08:43:27.594Z,100.00
2022-11-01T08:48:30.994Z,100.00
2022-11-01T08:53:35.853Z,100.00
2022-11-01T08:58:39.234Z,100.00
2022-11-01T09:03:42.800Z,100.00
2022-11-01T09:08:47.538Z,100.00
2022-11-01T09:13:51.233Z,100.00
2022-11-01T09:18:54.769Z,100.00
2022-11-01T09:23:59.912Z,100.00
2022-11-01T09:29:04.099Z,100.00
2022-11-01T09:34:07.502Z,100.00
2022-11-01T09:39:13.107Z,100.00
2022-11-01T09:44:18.566Z,100.00
2022-11-01T09:52:54.157Z,100.00
2022-11-01T09:58:04.205Z,100.00
2022-11-01T10:03:22.849Z,100.00
2022-11-01T10:08:39.158Z,100.00
2022-11-01T10:13:52.902Z,100.00
2022-11-01T10:19:04.457Z,100.00
2022-11-01T10:24:19.198Z,100.00
2022-11-01T10:29:29.053Z,100.00
2022-11-01T10:34:38.254Z,100.00
2022-11-01T10:39:55.607Z,100.00
2022-11-01T10:45:06.484Z,100.00
2022-11-01T10:50:18.237Z,100.00
2022-11-01T10:55:27.259Z,100.00
2022-11-01T11:00:33.631Z,100.00
2022-11-01T11:05:37.391Z,100.00
2022-11-01T11:10:43.371Z,99.54
2022-11-01T11:15:52.496Z,88.24
2022-11-01T11:21:00.145Z,83.05
2022-11-01T11:26:09.133Z,77.85
2022-11-01T11:31:15.372Z,73.39
2022-11-01T11:36:27.470Z,69.92
2022-11-01T11:41:35.216Z,63.29
2022-11-01T11:46:48.941Z,64.63
2022-11-01T11:51:54.323Z,61.20
2022-11-01T11:57:12.044Z,59.21
2022-11-01T12:02:20.799Z,58.82
2022-11-01T12:07:27.925Z,59.44
2022-11-01T12:12:35.095Z,56.37
2022-11-01T12:17:46.329Z,57.65
2022-11-01T12:22:53.293Z,57.64
2022-11-01T12:28:02.220Z,56.59
2022-11-01T12:38:34.909Z,54.67
2022-11-01T12:43:53.826Z,51.78
2022-11-01T12:49:03.241Z,53.06
2022-11-01T12:54:13.079Z,52.83
2022-11-01T12:59:25.776Z,51.78
2022-11-01T13:04:33.490Z,51.88
2022-11-01T13:09:47.154Z,49.08
2022-11-01T13:15:04.347Z,49.98
2022-11-01T13:20:34.666Z,49.38
2022-11-01T13:25:42.591Z,47.21
2022-11-01T13:30:55.323Z,46.46
2022-11-01T13:36:03.418Z,46.82
2022-11-01T13:41:19.732Z,47.08
2022-11-01T13:46:44.354Z,47.81
2022-11-01T13:51:55.165Z,47.15
2022-11-01T13:57:02.531Z,46.89
2022-11-01T14:02:50.079Z,46.92
2022-11-01T14:08:29.051Z,47.85
2022-11-01T14:13:40.652Z,47.31
2022-11-01T14:19:20.576Z,49.87
2022-11-01T14:24:35.189Z,50.01
2022-11-01T14:29:39.081Z,51.08
2022-11-01T14:34:45.757Z,53.63
2022-11-01T14:39:58.071Z,54.68
2022-11-01T14:45:20.379Z,52.97
2022-11-01T14:50:29.761Z,53.67
2022-11-01T14:55:37.534Z,54.40
2022-11-01T15:00:42.322Z,54.65
2022-11-01T15:05:48.658Z,57.20
2022-11-01T15:10:55.728Z,62.40
2022-11-01T15:16:08.439Z,66.03
2022-11-01T15:26:26.730Z,73.96
2022-11-01T15:31:31.085Z,79.80
2022-11-01T15:36:36.972Z,83.61
2022-11-01T15:41:42.538Z,84.33
2022-11-01T15:46:46.662Z,87.11
2022-11-01T15:51:54.042Z,89.55
2022-11-01T15:57:03.141Z,93.21
2022-11-01T16:02:13.976Z,96.04
2022-11-01T16:07:20.578Z,94.28
2022-11-01T16:12:30.849Z,97.78
2022-11-01T16:17:37.335Z,98.80
2022-11-01T16:22:47.861Z,97.30
2022-11-01T16:28:05.264Z,99.09
2022-11-01T16:33:16.969Z,100.00
2022-11-01T16:38:29.849Z,100.00
2022-11-01T16:43:36.254Z,100.00
2022-11-01T16:48:52.119Z,100.00
2022-11-01T16:53:56.743Z,100.00
2022-11-01T16:59:08.281Z,100.00
2022-11-01T17:04:14.094Z,100.00
2022-11-01T17:09:20.397Z,100.00
2022-11-01T17:14:26.333Z,100.00
2022-11-01T17:19:35.074Z,100.00
2022-11-01T17:24:39.251Z,100.00
2022-11-01T17:29:44.249Z,100.00
2022-11-01T17:34:49.260Z,100.00
2022-11-01T17:39:53.139Z,100.00
2022-11-01T17:44:58.167Z,100.00
2022-11-01T17:50:02.385Z,100.00
2022-11-01T17:55:07.766Z,100.00
2022-11-01T18:00:13.867Z,100.00
2022-11-01T18:05:18.610Z,100.00
2022-11-01T18:10:25.326Z,100.00
2022-11-01T18:15:39.332Z,100.00
2022-11-01T18:20:49.898Z,100.00
2022-11-01T18:25:53.714Z,100.00
2022-11-01T18:31:00.250Z,100.00
2022-11-01T18:36:09.465Z,100.00
2022-11-01T18:41:19.715Z,100.00
2022-11-01T18:46:27.460Z,100.00
2022-11-01T18:51:33.311Z,100.00
2022-11-01T18:56:38.296Z,100.00
2022-11-01T19:01:43.907Z,100.00
2022-11-01T19:06:47.763Z,100.00
2022-11-01T19:11:58.460Z,100.00
2022-11-01T19:17:04.396Z,100.00
2022-11-01T19:22:28.784Z,100.00
2022-11-01T19:27:32.661Z,100.00
2022-11-01T19:32:37.718Z,100.00
2022-11-01T19:37:43.248Z,100.00
2022-11-01T19:42:46.963Z,100.00
2022-11-01T19:47:52.404Z,100.00
2022-11-01T19:52:58.612Z,100.00
2022-11-01T19:58:02.919Z,100.00
2022-11-01T20:03:21.773Z,100.00
2022-11-01T20:08:33.055Z,100.00
2022-11-01T20:13:36.975Z,100.00
2022-11-01T20:18:42.186Z,100.00
2022-11-01T20:23:46.009Z,100.00
2022-11-01T20:28:50.112Z,100.00
2022-11-01T20:33:55.220Z,100.00
2022-11-01T20:38:58.887Z,100.00
2022-11-01T20:44:02.589Z,100.00
2022-11-01T20:49:08.066Z,100.00
2022-11-01T20:54:17.470Z,100.00
2022-11-01T20:59:21.658Z,100.00
2022-11-01T21:04:27.374Z,100.00
2022-11-01T21:09:33.427Z,100.00
2022-11-01T21:14:37.925Z,100.00
2022-11-01T21:19:43.340Z,100.00
2022-11-01T21:24:48.830Z,100.00
2022-11-01T21:29:53.139Z,100.00
2022-11-01T21:34:58.892Z,100.00
2022-11-01T21:40:06.737Z,100.00
2022-11-01T21:45:30.205Z,100.00
2022-11-01T21:50:35.328Z,100.00
2022-11-01T21:55:39.045Z,100.00
2022-11-01T22:00:42.684Z,100.00
2022-11-01T22:05:47.765Z,100.00
2022-11-01T22:10:51.450Z,100.00
2022-11-01T22:15:55.157Z,100.00
2022-11-01T22:21:00.153Z,100.00
2022-11-01T22:26:03.993Z,100.00
2022-11-01T22:31:07.807Z,100.00
2022-11-01T22:36:20.081Z,100.00
2022-11-01T22:41:31.603Z,100.00
2022-11-01T22:46:47.610Z,100.00
2022-11-01T22:51:55.971Z,100.00
2022-11-01T22:57:04.148Z,100.00
2022-11-01T23:02:26.980Z,100.00
2022-11-01T23:07:35.549Z,100.00
2022-11-01T23:12:56.935Z,100.00
2022-11-01T23:18:06.466Z,100.00
2022-11-01T23:23:16.679Z,100.00
2022-11-01T23:28:20.695Z,100.00
2022-11-01T23:33:33.728Z,100.00
2022-11-01T23:38:41.826Z,100.00
2022-11-01T23:43:45.774Z,100.00
2022-11-01T23:48:50.211Z,100.00
2022-11-01T23:53:57.037Z,100.00
2022-11-01T23:59:04.245Z,100.00
